Time;durP1;ratioP1;P1;durP2;ratioP2;P2;SDS_P1;SDS_P2;PMS_P1;PMS_P2;Temp;Humidity;BMP_temperature;BMP_pressure;BME280_temperature;BME280_humidity;BME280_pressure;Samples;Min_cycle;Max_cycle;Signal;HPM_P1;HPM_P2
2023/09/10 00:01:59;;;;;;;16.75;12.05;;;20.10;99.90;;;20.91;66.57;100711.38;6218158;23;20019;-86
2023/09/10 00:04:26;;;;;;;14.43;11.40;;;20.00;99.90;;;20.89;66.74;100721.69;6245101;23;20043;-86
2023/09/10 00:06:54;;;;;;;15.40;12.00;;;20.00;99.90;;;20.88;66.27;100711.91;6245859;23;20012;-86
2023/09/10 00:09:21;;;;;;;17.05;12.07;;;20.10;99.90;;;20.89;66.44;100718.19;6244972;22;20410;-87
2023/09/10 00:11:48;;;;;;;18.67;11.88;;;20.00;99.90;;;20.86;66.57;100714.09;6218014;23;20478;-87
2023/09/10 00:14:17;;;;;;;16.05;12.32;;;20.00;99.90;;;20.87;66.77;100720.34;6218398;23;20099;-86
2023/09/10 00:16:44;;;;;;;17.00;12.30;;;20.00;99.90;;;20.85;66.82;100717.91;6245456;23;20074;-86
2023/09/10 00:19:12;;;;;;;17.08;12.35;;;20.00;99.90;;;20.82;66.60;100713.03;6218498;23;20020;-86
2023/09/10 00:21:39;;;;;;;17.73;12.48;;;20.00;99.90;;;20.82;66.59;100710.31;6244373;23;20023;-87
2023/09/10 00:24:08;;;;;;;19.15;12.93;;;20.00;99.90;;;20.80;66.86;100713.31;6244339;23;20012;-86
2023/09/10 00:26:36;;;;;;;17.35;12.65;;;20.00;99.90;;;20.81;66.45;100711.41;6218277;23;20019;-86
2023/09/10 00:29:03;;;;;;;24.45;14.10;;;20.00;99.90;;;20.80;66.83;100704.38;6217307;22;20370;-86
2023/09/10 00:31:34;;;;;;;17.98;14.63;;;20.00;99.90;;;20.79;66.84;100708.97;6192638;23;20103;-86
2023/09/10 00:34:02;;;;;;;18.77;14.90;;;20.00;99.90;;;20.80;67.02;100712.50;6243358;23;20407;-86
2023/09/10 00:36:29;;;;;;;18.60;14.45;;;20.00;99.90;;;20.76;67.05;100706.78;6243368;23;20020;-86
2023/09/10 00:38:56;;;;;;;18.02;13.40;;;20.00;99.90;;;20.76;66.68;100714.13;6217516;22;20517;-86
2023/09/10 00:41:24;;;;;;;18.95;14.20;;;20.00;99.90;;;20.73;66.90;100710.03;6242418;23;20024;-86
2023/09/10 00:43:51;;;;;;;18.27;14.32;;;19.90;99.90;;;20.70;66.71;100710.59;6244570;23;20343;-86
2023/09/10 00:46:19;;;;;;;17.98;13.40;;;19.90;99.90;;;20.68;67.13;100704.63;6244735;23;20035;-86
2023/09/10 00:48:48;;;;;;;20.08;13.82;;;19.80;99.90;;;20.66;66.92;100708.72;6218069;22;20410;-87
2023/09/10 00:51:15;;;;;;;19.08;14.55;;;19.80;99.90;;;20.66;67.01;100700.59;6242598;23;20419;-86
2023/09/10 00:53:43;;;;;;;19.05;14.38;;;19.80;99.90;;;20.66;66.90;100703.28;6218218;23;20016;-86
2023/09/10 00:56:12;;;;;;;18.65;14.77;;;19.80;99.90;;;20.62;66.79;100702.22;6243171;23;20048;-86
2023/09/10 00:58:40;;;;;;;19.27;14.48;;;19.80;99.90;;;20.60;66.87;100698.97;6218605;23;20024;-86
2023/09/10 01:01:08;;;;;;;18.08;14.00;;;19.70;99.90;;;20.60;67.08;100701.69;6242546;23;20024;-86
2023/09/10 01:03:36;;;;;;;21.08;14.52;;;19.70;99.90;;;20.57;66.84;100694.88;6242606;23;20016;-86
2023/09/10 01:06:05;;;;;;;18.05;13.82;;;19.70;99.90;;;20.55;67.12;100697.88;6245110;23;20023;-86
2023/09/10 01:08:32;;;;;;;17.88;13.55;;;19.70;99.90;;;20.55;66.91;100697.88;6243208;23;20050;-86
2023/09/10 01:11:09;;;;;;;16.48;13.45;;;19.70;99.90;;;20.53;66.91;100700.03;6241617;22;20020;-86
2023/09/10 01:13:52;;;;;;;18.23;13.30;;;19.70;99.90;;;20.51;66.88;100699.50;6217499;23;20653;-86
2023/09/10 01:16:30;;;;;;;17.38;13.35;;;19.70;99.90;;;20.50;66.86;100700.59;6217716;23;20566;-86
2023/09/10 01:19:08;;;;;;;16.73;12.65;;;19.60;99.90;;;20.49;66.62;100706.25;6243138;22;20079;-87
2023/09/10 01:21:58;;;;;;;18.58;13.40;;;19.60;99.90;;;20.47;66.90;100700.31;6244249;23;20027;-87
2023/09/10 01:24:35;;;;;;;19.48;13.30;;;19.60;99.90;;;20.44;66.92;100698.91;6217054;23;20020;-87
2023/09/10 01:27:02;;;;;;;19.10;14.48;;;19.60;99.90;;;20.45;67.43;100699.75;6218113;23;20020;-87
2023/09/10 01:29:30;;;;;;;17.35;13.05;;;19.60;99.90;;;20.42;67.15;100697.56;6217110;23;20119;-87
2023/09/10 01:32:01;;;;;;;17.67;13.68;;;19.60;99.90;;;20.39;67.00;100696.22;6217532;23;20047;-87
2023/09/10 01:34:37;;;;;;;16.35;13.38;;;19.50;99.90;;;20.38;67.26;100696.50;6217527;23;20078;-87
2023/09/10 01:37:15;;;;;;;20.42;12.90;;;19.50;99.90;;;20.35;66.91;100689.72;6217934;23;20016;-87
2023/09/10 01:39:49;;;;;;;16.08;13.45;;;19.50;99.90;;;20.34;67.07;100696.22;6216528;23;20051;-87
2023/09/10 01:42:18;;;;;;;15.68;12.88;;;19.50;99.90;;;20.33;66.95;100694.59;6216945;23;20016;-87
2023/09/10 01:44:47;;;;;;;17.55;13.00;;;19.50;99.90;;;20.32;66.92;100695.69;6217391;23;20078;-87
2023/09/10 01:47:14;;;;;;;15.75;12.90;;;19.50;99.90;;;20.31;67.18;100702.19;6217634;23;20020;-87
2023/09/10 01:49:42;;;;;;;16.25;13.23;;;19.40;99.90;;;20.29;67.19;100693.50;6216927;23;20008;-87
2023/09/10 01:52:09;;;;;;;16.92;12.55;;;19.40;99.90;;;20.28;66.82;100697.28;6216345;23;20043;-87
2023/09/10 01:54:37;;;;;;;16.55;12.60;;;19.40;99.90;;;20.29;66.87;100688.88;6217708;23;20020;-86
2023/09/10 01:57:06;;;;;;;20.17;12.88;;;19.40;99.90;;;20.26;66.92;100694.88;6242431;23;20018;-87
2023/09/10 01:59:33;;;;;;;15.55;12.77;;;19.40;99.90;;;20.25;67.08;100701.38;6217490;23;20020;-87
2023/09/10 02:02:00;;;;;;;15.68;12.32;;;19.40;99.90;;;20.24;67.09;100696.22;6242103;23;20028;-87
2023/09/10 02:04:28;;;;;;;17.00;12.20;;;19.40;99.90;;;20.22;67.33;100701.09;6244435;23;20039;-87
2023/09/10 02:06:55;;;;;;;14.15;11.63;;;19.30;99.90;;;20.21;66.88;100702.19;6217908;23;20020;-87
2023/09/10 02:09:23;;;;;;;21.77;12.65;;;19.30;99.90;;;20.20;67.07;100698.63;6242777;22;20112;-87
2023/09/10 02:11:50;;;;;;;16.17;12.38;;;19.30;99.90;;;20.19;66.91;100699.72;6242253;23;20074;-87
2023/09/10 02:14:19;;;;;;;21.88;12.88;;;19.30;99.90;;;20.19;66.87;100694.31;6244217;23;20027;-87
2023/09/10 02:16:46;;;;;;;16.65;11.75;;;19.30;99.90;;;20.17;67.35;100701.91;6217756;23;20059;-87
2023/09/10 02:19:14;;;;;;;22.08;12.70;;;19.30;99.90;;;20.16;67.43;100704.88;6218665;23;20072;-87
2023/09/10 02:21:41;;;;;;;14.98;12.05;;;19.30;99.90;;;20.14;67.32;100704.31;6217557;23;20025;-87
2023/09/10 02:24:09;;;;;;;20.30;12.80;;;19.30;99.90;;;20.11;67.31;100707.59;6217621;23;20020;-87
2023/09/10 02:26:36;;;;;;;17.95;12.38;;;19.20;99.90;;;20.11;67.48;100713.00;6217360;23;20019;-86
2023/09/10 02:29:03;;;;;;;16.08;12.05;;;19.20;99.90;;;20.10;67.43;100705.94;6217855;22;20526;-86
2023/09/10 02:31:32;;;;;;;14.60;11.90;;;19.20;99.90;;;20.08;67.36;100713.53;6217226;23;20024;-87
2023/09/10 02:34:01;;;;;;;14.50;11.80;;;19.20;99.90;;;20.08;67.36;100710.81;6216967;23;20067;-87
2023/09/10 02:36:29;;;;;;;14.98;12.45;;;19.20;99.90;;;20.05;67.08;100710.25;6242834;23;20328;-86
2023/09/10 02:38:56;;;;;;;15.48;11.90;;;19.20;99.90;;;20.05;67.16;100710.25;6243232;22;20070;-86
2023/09/10 02:41:25;;;;;;;15.23;12.55;;;19.20;99.90;;;20.04;67.17;100713.25;6214968;23;20090;-87
2023/09/10 02:43:52;;;;;;;15.65;11.57;;;19.20;99.90;;;20.01;67.06;100711.09;6242849;23;20044;-87
2023/09/10 02:46:20;;;;;;;16.02;11.52;;;19.20;99.90;;;20.00;67.21;100712.16;6219706;23;20371;-87
2023/09/10 02:48:48;;;;;;;18.42;12.32;;;19.20;99.90;;;19.97;67.53;100713.50;6219269;22;20047;-87
2023/09/10 02:51:16;;;;;;;15.65;11.60;;;19.10;99.90;;;19.95;67.46;100710.25;6217414;23;20016;-86
2023/09/10 02:53:43;;;;;;;17.13;12.20;;;19.10;99.90;;;19.95;67.02;100715.66;6219215;23;20020;-87
2023/09/10 02:56:11;;;;;;;14.85;12.20;;;19.10;99.90;;;19.93;67.10;100720.53;6246123;23;20623;-87
2023/09/10 02:58:39;;;;;;;15.68;11.68;;;19.10;99.90;;;19.94;67.34;100724.06;6245562;23;20016;-87
2023/09/10 03:01:06;;;;;;;15.23;11.70;;;19.10;99.90;;;19.92;67.28;100727.03;6218497;23;20016;-87
2023/09/10 03:03:34;;;;;;;16.90;11.82;;;19.10;99.90;;;19.90;67.55;100720.25;6244650;23;20063;-87
2023/09/10 03:06:10;;;;;;;15.57;11.20;;;19.10;99.90;;;19.89;67.46;100721.34;6219303;23;20102;-87
2023/09/10 03:08:37;;;;;;;15.90;11.52;;;19.00;99.90;;;19.87;67.43;100727.03;6218863;23;20024;-87
2023/09/10 03:11:06;;;;;;;14.10;11.63;;;19.00;99.90;;;19.85;67.39;100726.47;6217928;23;20044;-86
2023/09/10 03:13:33;;;;;;;15.30;11.65;;;19.00;99.90;;;19.84;67.30;100730.25;6244639;23;20020;-87
2023/09/10 03:16:00;;;;;;;15.02;12.18;;;19.00;99.90;;;19.82;67.44;100729.72;6218202;23;20020;-86
2023/09/10 03:18:28;;;;;;;16.13;12.05;;;19.00;99.90;;;19.79;67.57;100731.06;6219004;23;20451;-87
2023/09/10 03:20:55;;;;;;;15.23;11.82;;;19.00;99.90;;;19.78;67.63;100731.31;6218751;23;20020;-87
2023/09/10 03:23:24;;;;;;;15.57;11.10;;;19.00;99.90;;;19.78;67.43;100734.03;6219134;23;20069;-86
2023/09/10 03:25:51;;;;;;;16.50;11.57;;;18.90;99.90;;;19.78;67.65;100731.31;6244228;23;20035;-86
2023/09/10 03:28:19;;;;;;;13.45;10.95;;;19.00;99.90;;;19.75;67.31;100727.25;6219104;23;20024;-87
2023/09/10 03:30:46;;;;;;;16.48;11.50;;;18.90;99.90;;;19.75;67.73;100729.13;6217287;23;20047;-86
2023/09/10 03:33:14;;;;;;;17.73;11.50;;;18.90;99.90;;;19.73;67.59;100729.41;6244389;23;20044;-87
2023/09/10 03:35:41;;;;;;;15.32;11.40;;;18.90;99.90;;;19.74;67.55;100724.81;6243920;23;20028;-87
2023/09/10 03:38:09;;;;;;;16.15;10.85;;;18.90;99.90;;;19.71;67.83;100712.59;6219299;23;20031;-87
2023/09/10 03:40:37;;;;;;;14.07;11.23;;;18.90;99.90;;;19.71;67.32;100714.50;6217892;23;20027;-86
2023/09/10 03:43:06;;;;;;;16.02;11.43;;;18.90;99.90;;;19.69;67.53;100714.78;6244280;23;20031;-87
2023/09/10 03:45:34;;;;;;;15.45;11.05;;;18.80;99.90;;;19.68;67.81;100720.47;6243796;23;20020;-87
2023/09/10 03:48:01;;;;;;;14.15;11.60;;;18.90;99.90;;;19.68;67.65;100728.59;6243956;23;20466;-86
2023/09/10 03:50:29;;;;;;;14.50;11.45;;;18.90;99.90;;;19.64;67.52;100722.88;6217303;23;20040;-86
2023/09/10 03:52:57;;;;;;;15.40;11.77;;;18.80;99.90;;;19.63;67.62;100717.75;6218939;23;20458;-87
2023/09/10 03:55:24;;;;;;;16.60;11.35;;;18.80;99.90;;;19.62;67.83;100727.75;6244961;23;20020;-87
2023/09/10 03:57:53;;;;;;;15.45;11.45;;;18.80;99.90;;;19.60;68.00;100721.78;6245139;23;20077;-87
2023/09/10 04:00:22;;;;;;;18.60;12.13;;;18.80;99.90;;;19.59;67.71;100724.72;6243491;22;20055;-87
2023/09/10 04:02:49;;;;;;;15.77;12.27;;;18.80;99.90;;;19.58;67.87;100723.91;6218909;23;20123;-87
2023/09/10 04:05:16;;;;;;;16.40;12.05;;;18.70;99.90;;;19.58;68.01;100731.22;6218355;23;20070;-87
2023/09/10 04:07:44;;;;;;;16.98;11.90;;;18.70;99.90;;;19.58;67.67;100725.81;6218817;23;20443;-87
2023/09/10 04:10:11;;;;;;;17.55;11.60;;;18.70;99.90;;;19.58;68.06;100734.75;6218037;23;20094;-87
2023/09/10 04:12:39;;;;;;;14.98;11.85;;;18.70;99.90;;;19.56;67.74;100726.06;6244052;23;20067;-86
2023/09/10 04:15:09;;;;;;;14.93;12.00;;;18.70;99.90;;;19.55;67.86;100719.03;6245218;23;20012;-87
2023/09/10 04:17:36;;;;;;;14.52;11.30;;;18.80;99.90;;;19.54;67.83;100728.22;6218955;23;20039;-87
2023/09/10 04:20:07;;;;;;;13.52;10.90;;;18.70;99.90;;;19.54;68.06;100725.53;6217912;23;20054;-87
2023/09/10 04:22:34;;;;;;;13.27;10.77;;;18.80;99.90;;;19.51;68.24;100724.16;6218229;23;20020;-87
2023/09/10 04:25:02;;;;;;;13.13;10.85;;;18.70;99.90;;;19.52;67.81;100722.25;6192960;23;20708;-87
2023/09/10 04:27:30;;;;;;;17.40;11.43;;;18.70;99.90;;;19.51;68.02;100721.44;6244168;23;20399;-87
2023/09/10 04:29:58;;;;;;;16.10;11.43;;;18.70;99.90;;;19.50;67.79;100719.00;6242394;22;20469;-87
2023/09/10 04:32:26;;;;;;;16.38;12.05;;;18.70;99.90;;;19.49;68.13;100718.19;6217970;23;20016;-87
2023/09/10 04:34:54;;;;;;;15.05;11.40;;;18.70;99.90;;;19.49;67.83;100717.38;6218447;23;20039;-87
2023/09/10 04:37:21;;;;;;;14.48;11.60;;;18.70;99.90;;;19.48;68.34;100722.00;6243609;23;20467;-87
2023/09/10 04:39:48;;;;;;;16.33;11.50;;;18.70;99.90;;;19.46;67.94;100721.41;6217901;23;20102;-87
2023/09/10 04:42:17;;;;;;;16.05;11.77;;;18.70;99.90;;;19.49;68.29;100720.09;6218798;23;20070;-87
2023/09/10 04:44:44;;;;;;;15.40;11.32;;;18.70;99.90;;;19.45;68.13;100727.91;6217769;23;20016;-87
2023/09/10 04:47:11;;;;;;;14.25;11.50;;;18.60;99.90;;;19.44;68.40;100729.00;6242983;23;20481;-87
2023/09/10 04:49:40;;;;;;;16.92;11.90;;;18.60;99.90;;;19.43;68.39;100727.38;6243684;22;20086;-87
2023/09/10 04:52:08;;;;;;;14.38;11.35;;;18.60;99.90;;;19.41;68.37;100726.00;6217797;23;20024;-87
2023/09/10 04:54:36;;;;;;;16.90;11.60;;;18.60;99.90;;;19.40;68.22;100736.00;6217846;23;20024;-87
2023/09/10 04:57:03;;;;;;;19.77;11.90;;;18.60;99.90;;;19.39;68.75;100734.38;6218037;23;20035;-87
2023/09/10 04:59:32;;;;;;;15.57;11.40;;;18.60;99.90;;;19.41;68.54;100731.41;6216459;23;20078;-87
2023/09/10 05:02:00;;;;;;;15.40;11.48;;;18.60;99.90;;;19.38;68.47;100732.75;6217289;23;20066;-87
2023/09/10 05:04:27;;;;;;;15.65;11.88;;;18.60;99.90;;;19.38;68.72;100731.94;6218133;23;20050;-87
2023/09/10 05:06:56;;;;;;;13.98;10.98;;;18.50;99.90;;;19.38;68.59;100735.47;6217699;23;20024;-87
2023/09/10 05:09:23;;;;;;;18.65;11.77;;;18.60;99.90;;;19.37;68.51;100736.53;6218179;23;20581;-87
2023/09/10 05:11:51;;;;;;;16.83;11.70;;;18.60;99.90;;;19.37;68.64;100731.13;6216770;23;20494;-87
2023/09/10 05:14:18;;;;;;;15.27;11.48;;;18.60;99.90;;;19.37;68.44;100741.13;6218169;23;20023;-87
2023/09/10 05:16:46;;;;;;;17.15;11.95;;;18.60;99.90;;;19.36;69.03;100739.50;6243136;23;20051;-87
2023/09/10 05:19:13;;;;;;;15.55;11.32;;;18.60;99.90;;;19.35;68.73;100733.28;6218513;23;20032;-87
2023/09/10 05:21:40;;;;;;;16.38;11.95;;;18.60;99.90;;;19.37;69.00;100735.72;6217420;23;20026;-87
2023/09/10 05:24:09;;;;;;;15.52;11.70;;;18.60;99.90;;;19.39;69.00;100737.09;6216630;23;20039;-88
2023/09/10 05:26:37;;;;;;;13.57;10.82;;;18.60;99.90;;;19.38;69.11;100740.88;6217930;23;20415;-89
2023/09/10 05:29:04;;;;;;;14.23;10.68;;;18.60;99.90;;;19.40;69.17;100744.13;6241917;22;20020;-88
2023/09/10 05:31:32;;;;;;;16.02;11.25;;;18.70;99.90;;;19.40;69.17;100744.13;6217090;23;20394;-86
2023/09/10 05:33:59;;;;;;;14.43;11.55;;;18.70;99.90;;;19.40;69.38;100746.81;6242406;23;20024;-85
2023/09/10 05:36:28;;;;;;;15.00;11.43;;;18.70;99.90;;;19.42;69.01;100750.09;6243189;23;20024;-88
2023/09/10 05:38:56;;;;;;;21.25;11.38;;;18.70;99.90;;;19.46;69.55;100750.38;6217334;22;20336;-89
2023/09/10 05:41:25;;;;;;;16.83;11.70;;;18.70;99.90;;;19.48;69.70;100742.81;6241130;23;20114;-89
2023/09/10 05:43:52;;;;;;;15.73;11.02;;;18.80;99.90;;;19.49;69.56;100742.53;6216123;23;20099;-85
2023/09/10 05:46:20;;;;;;;14.20;11.82;;;18.80;99.90;;;19.50;69.79;100743.34;6215611;23;20027;-88
2023/09/10 05:48:47;;;;;;;17.27;11.18;;;18.80;99.90;;;19.50;69.95;100738.75;6216371;22;20020;-88
2023/09/10 05:51:15;;;;;;;14.60;11.65;;;18.80;99.90;;;19.51;70.28;100744.97;6190807;23;20013;-88
2023/09/10 05:53:44;;;;;;;15.35;12.48;;;18.90;99.90;;;19.54;70.54;100744.47;6215628;23;20020;-89
2023/09/10 05:56:11;;;;;;;17.88;12.73;;;18.90;99.90;;;19.56;70.55;100745.81;6241595;23;20350;-88
2023/09/10 05:58:40;;;;;;;14.57;12.20;;;18.90;99.90;;;19.58;70.31;100747.47;6240709;23;20020;-86
2023/09/10 06:01:08;;;;;;;20.75;13.02;;;19.00;99.90;;;19.61;70.18;100749.66;6240386;23;20027;-88
2023/09/10 06:03:35;;;;;;;18.80;12.05;;;19.00;99.90;;;19.63;70.45;100750.22;6243349;23;20024;-85
2023/09/10 06:06:02;;;;;;;18.13;12.40;;;19.00;99.90;;;19.66;70.24;100749.66;6217006;23;20399;-87
2023/09/10 06:08:31;;;;;;;18.02;12.55;;;19.10;99.90;;;19.67;70.73;100751.31;6216658;23;20020;-87
2023/09/10 06:10:58;;;;;;;18.98;12.70;;;19.10;99.90;;;19.70;71.03;100746.16;6215056;23;20355;-87
2023/09/10 06:13:25;;;;;;;18.13;12.73;;;19.10;99.90;;;19.72;71.56;100756.75;6216494;23;20514;-84
2023/09/10 06:15:54;;;;;;;16.30;12.50;;;19.20;99.90;;;19.74;71.76;100751.88;6215082;23;20028;-85
2023/09/10 06:18:22;;;;;;;15.05;12.27;;;19.30;99.90;;;19.77;71.52;100752.16;6214708;23;20024;-84
2023/09/10 06:20:49;;;;;;;16.98;12.63;;;19.40;99.90;;;19.82;71.70;100753.28;6242730;22;20028;-84
2023/09/10 06:23:16;;;;;;;16.20;12.90;;;19.40;99.90;;;19.85;71.53;100750.81;6218017;23;20074;-88
2023/09/10 06:25:49;;;;;;;17.85;12.23;;;19.50;99.90;;;19.89;71.43;100753.81;6217705;23;20024;-84
2023/09/10 06:28:18;;;;;;;17.60;13.65;;;19.60;99.90;;;19.92;71.73;100748.69;6188960;22;20032;-81
2023/09/10 06:30:45;;;;;;;16.50;12.05;;;19.60;99.90;;;19.95;71.57;100753.56;6156984;23;20433;-83
2023/09/10 06:33:13;;;;;;;19.15;12.50;;;19.70;99.90;;;19.99;71.58;100749.25;6182703;23;20050;-85
2023/09/10 06:35:41;;;;;;;16.10;13.43;;;19.70;99.90;;;20.08;71.84;100762.28;6182983;23;20025;-82
2023/09/10 06:38:08;;;;;;;16.60;12.60;;;19.70;99.90;;;20.10;72.20;100765.50;6183815;23;20025;-84
2023/09/10 06:40:36;;;;;;;14.80;12.27;;;19.80;99.90;;;20.14;71.93;100763.91;6179761;23;20084;-84
2023/09/10 06:43:05;;;;;;;17.55;12.60;;;19.80;99.90;;;20.20;71.65;100769.06;6181860;23;20025;-84
2023/09/10 06:45:43;;;;;;;16.80;12.80;;;19.90;99.90;;;20.25;72.06;100768.25;6182479;23;20095;-84
2023/09/10 06:48:10;;;;;;;15.80;12.30;;;19.90;99.90;;;20.26;72.63;100773.41;6182013;23;20035;-81
2023/09/10 06:50:39;;;;;;;19.60;13.88;;;19.90;99.90;;;20.34;71.98;100769.34;6181142;23;20025;-81
2023/09/10 06:53:06;;;;;;;19.50;13.85;;;20.00;99.90;;;20.40;71.75;100767.47;6184155;23;20044;-81
2023/09/10 06:55:33;;;;;;;16.05;13.13;;;20.10;99.90;;;20.48;71.67;100772.38;6183791;23;20045;-82
2023/09/10 06:58:00;;;;;;;20.45;13.95;;;20.10;99.90;;;20.55;71.23;100767.53;6184061;23;20040;-81
2023/09/10 07:00:27;;;;;;;18.27;13.82;;;20.20;99.90;;;20.65;71.32;100774.84;6182748;23;20044;-80
2023/09/10 07:02:56;;;;;;;17.30;13.75;;;20.40;99.90;;;20.70;71.66;100764.00;6183481;23;20437;-81
2023/09/10 07:05:23;;;;;;;17.95;13.95;;;20.40;99.90;;;20.75;71.62;100766.72;6184179;23;20500;-82
2023/09/10 07:07:53;;;;;;;19.50;13.90;;;20.50;99.90;;;20.82;71.80;100767.25;6183682;23;20054;-81
2023/09/10 07:10:20;;;;;;;18.52;13.95;;;20.60;99.90;;;20.89;72.21;100769.69;6183041;23;20025;-82
2023/09/10 07:12:48;;;;;;;18.40;13.13;;;20.70;99.90;;;20.95;72.85;100760.47;6185616;23;20048;-84
2023/09/10 07:15:15;;;;;;;18.63;13.43;;;20.70;99.90;;;21.02;72.72;100767.22;6184440;23;20046;-84
2023/09/10 07:17:42;;;;;;;18.33;13.88;;;20.80;99.90;;;21.08;73.23;100770.72;6184145;23;20044;-84
2023/09/10 07:20:11;;;;;;;20.65;13.10;;;20.90;99.90;;;21.14;72.30;100766.94;6184024;23;20021;-84
2023/09/10 07:22:38;;;;;;;17.33;12.88;;;21.00;99.90;;;21.20;72.62;100775.88;6184120;23;20091;-84
2023/09/10 07:25:08;;;;;;;16.73;13.43;;;21.10;99.90;;;21.27;72.84;100777.19;6183331;23;20025;-84
2023/09/10 07:27:35;;;;;;;20.77;12.95;;;21.20;99.90;;;21.38;73.52;100782.66;6184401;23;20071;-84
2023/09/10 07:30:04;;;;;;;19.65;14.02;;;21.30;99.90;;;21.43;73.62;100775.31;6181066;23;20021;-86
2023/09/10 07:32:31;;;;;;;15.43;13.02;;;21.40;99.90;;;21.50;72.61;100780.44;6183385;23;20611;-83
2023/09/10 07:35:00;;;;;;;17.08;12.98;;;21.50;99.90;;;21.56;72.24;100777.44;6186009;23;20023;-83
2023/09/10 07:37:27;;;;;;;14.43;12.77;;;21.60;99.90;;;21.67;73.31;100778.22;6186324;23;20045;-85
2023/09/10 07:39:54;;;;;;;14.80;13.20;;;21.70;99.90;;;21.75;72.73;100774.91;6181051;23;20048;-84
2023/09/10 07:42:23;;;;;;;13.65;12.13;;;21.80;99.90;;;21.86;73.47;100781.09;6185521;23;20017;-84
2023/09/10 07:44:50;;;;;;;18.48;12.60;;;21.90;99.90;;;21.97;73.03;100781.91;6183973;23;20025;-84
2023/09/10 07:47:17;;;;;;;17.90;13.10;;;22.00;99.90;;;22.08;71.81;100778.03;6184410;23;20441;-85
2023/09/10 07:49:45;;;;;;;16.58;12.43;;;22.20;99.90;;;22.18;72.24;100772.56;6184188;23;20456;-84
2023/09/10 07:52:12;;;;;;;20.00;13.15;;;22.30;99.90;;;22.27;72.49;100780.94;6184007;23;20458;-81
2023/09/10 07:54:40;;;;;;;16.13;12.43;;;22.30;99.90;;;22.36;72.71;100782.78;6182864;23;20168;-81
2023/09/10 07:57:08;;;;;;;17.25;12.15;;;22.50;99.90;;;22.44;71.90;100784.06;6184805;23;20325;-80
2023/09/10 07:59:36;;;;;;;17.38;12.52;;;22.60;99.90;;;22.51;71.04;100786.47;6183342;23;20059;-81
2023/09/10 08:02:04;;;;;;;17.85;12.43;;;22.60;99.90;;;22.56;71.12;100781.81;6183135;23;20048;-81
2023/09/10 08:04:31;;;;;;;15.13;11.85;;;22.70;99.90;;;22.67;71.19;100789.88;6185635;23;20029;-82
2023/09/10 08:07:03;;;;;;;14.60;11.40;;;22.80;99.90;;;22.72;70.46;100784.41;6184201;23;20055;-85
2023/09/10 08:09:31;;;;;;;17.55;12.68;;;22.90;99.90;;;22.81;71.22;100790.88;6184383;23;20025;-84
2023/09/10 08:11:58;;;;;;;18.67;11.40;;;23.00;99.90;;;22.86;71.71;100788.09;6182841;23;20128;-83
2023/09/10 08:14:26;;;;;;;18.17;12.40;;;23.10;99.90;;;22.94;70.37;100790.25;6185035;23;20487;-83
2023/09/10 08:16:54;;;;;;;13.45;11.27;;;23.20;99.90;;;23.01;70.98;100790.72;6185098;23;20040;-83
2023/09/10 08:19:22;;;;;;;16.73;10.57;;;23.20;99.90;;;23.15;71.15;100790.03;6182708;23;20052;-84
2023/09/10 08:21:49;;;;;;;15.38;10.50;;;23.40;99.90;;;23.24;70.90;100791.84;6184053;23;20040;-84
2023/09/10 08:24:16;;;;;;;16.75;11.07;;;23.40;99.90;;;23.32;69.24;100791.19;6184137;23;20021;-83
2023/09/10 08:26:44;;;;;;;16.75;11.18;;;23.50;99.90;;;23.35;69.78;100787.91;6183916;23;20024;-83
2023/09/10 08:29:11;;;;;;;15.23;11.18;;;23.60;99.90;;;23.42;70.56;100787.56;6182712;23;20109;-83
2023/09/10 08:31:38;;;;;;;16.90;11.23;;;23.70;99.90;;;23.48;69.66;100788.34;6183830;23;20021;-83
2023/09/10 08:34:07;;;;;;;14.27;10.90;;;23.70;99.90;;;23.53;69.84;100780.09;6182711;23;20099;-83
2023/09/10 08:36:34;;;;;;;15.63;11.23;;;23.80;99.90;;;23.57;69.89;100781.97;6184345;23;20024;-83
2023/09/10 08:39:01;;;;;;;13.65;11.05;;;23.90;99.90;;;23.60;68.99;100786.81;6184625;23;20108;-83
2023/09/10 08:41:37;;;;;;;15.05;10.43;;;23.90;99.90;;;23.69;69.92;100792.47;6183768;23;20052;-83
2023/09/10 08:44:05;;;;;;;15.30;10.20;;;24.00;99.90;;;23.77;69.64;100785.56;6185059;23;20095;-83
2023/09/10 08:46:36;;;;;;;14.85;10.23;;;24.10;99.90;;;23.82;71.43;100788.22;6184790;23;20403;-83
2023/09/10 08:49:04;;;;;;;21.73;11.07;;;24.10;99.90;;;23.92;72.53;100779.13;6181944;23;20052;-83
2023/09/10 08:51:34;;;;;;;13.98;10.68;;;24.20;99.90;;;24.04;71.55;100788.47;6182814;23;20021;-83
2023/09/10 08:54:03;;;;;;;13.85;10.25;;;24.30;99.90;;;24.10;68.99;100783.75;6186474;23;20025;-84
2023/09/10 08:56:31;;;;;;;16.92;9.70;;;24.40;99.90;;;24.21;67.31;100779.78;6181749;23;20039;-83
2023/09/10 08:59:03;;;;;;;14.48;10.55;;;24.50;99.90;;;24.34;66.40;100783.69;6184342;23;20420;-84
2023/09/10 09:01:30;;;;;;;17.63;9.93;;;24.70;99.90;;;24.36;66.88;100785.06;6184085;23;20025;-84
2023/09/10 09:03:58;;;;;;;16.17;10.00;;;24.70;99.90;;;24.40;64.66;100783.34;6184589;23;20124;-83
2023/09/10 09:06:30;;;;;;;17.15;9.68;;;24.80;99.90;;;24.39;63.98;100778.19;6186230;23;20020;-83
2023/09/10 09:09:05;;;;;;;13.85;10.07;;;24.70;99.90;;;24.41;64.66;100778.72;6187492;23;20023;-84
2023/09/10 09:11:36;;;;;;;19.60;10.10;;;24.80;99.90;;;24.48;63.33;100778.31;6181568;23;20474;-84
2023/09/10 09:14:07;;;;;;;21.33;9.88;;;24.80;99.90;;;24.47;63.28;100772.06;6182733;23;20551;-83
2023/09/10 09:16:35;;;;;;;15.35;9.52;;;24.80;99.90;;;24.51;63.02;100777.75;6184528;23;20352;-84
2023/09/10 09:19:12;;;;;;;21.05;9.55;;;24.90;99.90;;;24.59;62.51;100774.31;6182293;23;20036;-84
2023/09/10 09:21:41;;;;;;;17.08;9.45;;;25.00;99.90;;;24.60;62.20;100771.31;6183659;23;20024;-84
2023/09/10 09:24:13;;;;;;;18.25;9.13;;;25.00;99.90;;;24.64;62.35;100772.34;6184705;23;20349;-83
2023/09/10 09:26:41;;;;;;;21.85;9.02;;;25.00;99.90;;;24.63;61.49;100769.91;6181775;23;20025;-84
2023/09/10 09:29:09;;;;;;;13.98;8.90;;;25.00;99.90;;;24.66;61.92;100770.13;6182095;23;20325;-84
2023/09/10 09:31:36;;;;;;;21.60;9.48;;;25.00;99.90;;;24.72;62.02;100772.75;6184319;23;20031;-84
2023/09/10 09:34:04;;;;;;;15.57;8.40;;;25.10;99.90;;;24.71;60.46;100763.75;6182338;23;20108;-84
2023/09/10 09:36:36;;;;;;;16.40;8.45;;;25.10;99.90;;;24.80;62.89;100759.25;6184924;23;20028;-84
2023/09/10 09:39:07;;;;;;;19.17;8.43;;;25.20;99.90;;;24.78;60.49;100760.63;6182846;23;20036;-83
2023/09/10 09:41:36;;;;;;;19.33;9.45;;;25.10;99.90;;;24.79;60.52;100754.06;6183435;23;20025;-84
2023/09/10 09:44:04;;;;;;;15.75;7.97;;;25.20;99.90;;;24.82;60.55;100750.75;6185213;23;20442;-84
2023/09/10 09:46:33;;;;;;;28.05;8.80;;;25.20;99.90;;;24.86;60.29;100759.97;6184003;23;20025;-84
2023/09/10 09:49:00;;;;;;;16.13;8.27;;;25.30;99.90;;;24.89;59.42;100751.19;6183895;23;20017;-84
2023/09/10 09:51:29;;;;;;;16.92;7.93;;;25.30;99.90;;;24.93;60.25;100757.66;6181562;23;20071;-84
2023/09/10 09:53:56;;;;;;;19.92;8.98;;;25.30;99.90;;;24.99;59.75;100753.75;6184152;23;20444;-83
2023/09/10 09:56:24;;;;;;;21.08;9.07;;;25.30;99.90;;;25.01;62.01;100751.50;6183864;23;20464;-83
2023/09/10 09:58:56;;;;;;;22.42;8.55;;;25.40;99.90;;;25.02;58.91;100752.31;6181698;23;20112;-84
2023/09/10 10:01:23;;;;;;;26.85;8.85;;;25.40;99.90;;;25.02;59.96;100749.56;6183314;23;20024;-84
2023/09/10 10:03:52;;;;;;;24.63;8.85;;;25.40;99.90;;;25.10;60.06;100747.00;6184390;23;20624;-84
2023/09/10 10:06:20;;;;;;;30.50;9.80;;;25.50;99.90;;;25.11;59.93;100742.34;6182366;23;20091;-83